KVOK/VOK METAR and TAF weather

Enter ICAO airport designator
Station Type Date Time Source
KVOK METAR 2022/01/29 10:56 UTC NOAA

KVOK 291056Z AUTO 16003KT 10SM OVC024 M11/M17 A3014 RMK AO2 SLP229 T11081169


Station Type Date Time Source
KVOK Decoded METAR 2022/01/29 10:56 UTC NOAA

Volk / Camp Douglas, WI, United States (KVOK) 43-56N 090-16W
Jan 29, 2022 - 05:56 AM EST / 2022.01.29 1056 UTC
Wind: from the SSE (160 degrees) at 3 MPH (3 KT):0
Visibility: 10 mile(s):0
Sky conditions: overcast
Temperature: 12.6 F (-10.8 C)
Dew Point: 1.6 F (-16.9 C)
Relative Humidity: 60%
Pressure (altimeter): 30.14 in. Hg (1020 hPa)
ob: KVOK 291056Z AUTO 16003KT 10SM OVC024 M11/M17 A3014 RMK AO2 SLP229 T11081169
cycle: 11

Station Type Date Time Source
KVOK TAF 2022/01/28 17:12 UTC NOAA

TAF KVOK 281700Z 2817/2923 VRB06KT 9999 SKC QNH3022INS
BECMG 2819/2820 VRB06KT 9999 BKN100 QNH3015INS
BECMG 2905/2906 VRB06KT 9999 BKN025 OVC035 620253 QNH3008INS
BECMG 2915/2916 18009KT 9999 SCT025 SCT035 BKN050 620502 QNH2996INS
BECMG 2919/2920 20010G15KT 9999 FEW020 FEW050 SCT120 QNH2984INS TXM07/2917Z TNM13/2912Z LAST NO
AMDS AFT 2822 NEXT 3109

Example: see airport list